RJOP(METAR)
02/20 20:00
METAR RJOP 201100Z 32019KT 9999 FEW030 BKN050 12/02 Q1020 RMK 1CU030
5SC050 A3013=
戻る
トップページへ戻る
IMOC Co,.Ltd.